Time;durP1;ratioP1;P1;durP2;ratioP2;P2;SDS_P1;SDS_P2;PMS_P1;PMS_P2;Temp;Humidity;BMP_temperature;BMP_pressure;BME280_temperature;BME280_humidity;BME280_pressure;Samples;Min_cycle;Max_cycle;Signal;HPM_P1;HPM_P2
2023/09/13 00:00:17;;;;;;;8.93;3.90;;;20.60;99.90;;;;;;5013077;28;20183;-76
2023/09/13 00:02:43;;;;;;;7.30;3.43;;;20.60;99.90;;;;;;5010338;28;20284;-76
2023/09/13 00:05:09;;;;;;;6.40;3.10;;;20.60;99.90;;;;;;5014191;28;20597;-76
2023/09/13 00:07:38;;;;;;;9.93;4.10;;;20.40;99.90;;;;;;5017035;28;20554;-75
2023/09/13 00:10:04;;;;;;;11.03;3.60;;;20.20;99.90;;;;;;5007176;28;20203;-74
2023/09/13 00:12:29;;;;;;;5.00;3.20;;;20.00;99.90;;;;;;5017920;28;20426;-76
2023/09/13 00:14:55;;;;;;;9.37;3.60;;;19.80;99.90;;;;;;5008064;28;20927;-76
2023/09/13 00:17:22;;;;;;;7.67;4.70;;;19.60;99.90;;;;;;5018186;28;20190;-76
2023/09/13 00:19:47;;;;;;;7.77;4.63;;;19.50;99.90;;;;;;5008651;28;20222;-76
2023/09/13 00:22:13;;;;;;;10.17;4.40;;;19.30;99.90;;;;;;5018690;28;20420;-76
2023/09/13 00:24:39;;;;;;;11.30;4.90;;;19.10;99.90;;;;;;5009588;28;20246;-76
2023/09/13 00:27:05;;;;;;;8.60;4.50;;;19.00;99.90;;;;;;5010290;28;20179;-77
2023/09/13 00:29:33;;;;;;;9.63;4.73;;;18.90;99.90;;;;;;5007994;28;20646;-77
2023/09/13 00:32:02;;;;;;;19.07;5.30;;;18.80;99.90;;;;;;5016658;28;20190;-77
2023/09/13 00:34:29;;;;;;;9.53;5.20;;;18.70;99.90;;;;;;5008606;28;20973;-76
2023/09/13 00:36:55;;;;;;;9.17;5.00;;;18.70;99.90;;;;;;5019549;28;20410;-76
2023/09/13 00:39:21;;;;;;;11.00;5.10;;;18.60;99.90;;;;;;5009182;28;20545;-76
2023/09/13 00:41:46;;;;;;;12.90;5.70;;;18.50;99.90;;;;;;5014896;28;20206;-76
2023/09/13 00:44:12;;;;;;;14.00;4.53;;;18.40;99.90;;;;;;5013122;28;20190;-77
2023/09/13 00:46:38;;;;;;;8.93;5.57;;;18.40;99.90;;;;;;5016506;28;20254;-76
2023/09/13 00:49:04;;;;;;;8.70;4.63;;;18.40;99.90;;;;;;5013615;28;20199;-77
2023/09/13 00:51:30;;;;;;;10.03;4.90;;;18.40;99.90;;;;;;5011519;28;20476;-77
2023/09/13 00:53:57;;;;;;;8.30;4.83;;;18.40;99.90;;;;;;5010264;28;20418;-77
2023/09/13 00:56:23;;;;;;;6.70;4.90;;;18.40;99.90;;;;;;5018628;28;20413;-76
2023/09/13 00:58:51;;;;;;;9.70;4.33;;;18.30;99.90;;;;;;5009576;28;20848;-76
2023/09/13 01:01:17;;;;;;;10.00;5.80;;;18.30;99.90;;;;;;5013381;28;20449;-76
2023/09/13 01:03:43;;;;;;;7.43;4.47;;;18.30;99.90;;;;;;5011873;28;20433;-77
2023/09/13 01:06:09;;;;;;;9.13;5.13;;;18.30;99.90;;;;;;5012575;28;20465;-76
2023/09/13 01:08:41;;;;;;;18.37;5.23;;;18.20;99.90;;;;;;5008050;28;20492;-76
2023/09/13 01:11:07;;;;;;;9.70;5.87;;;18.20;99.90;;;;;;5007476;28;20495;-76
2023/09/13 01:13:33;;;;;;;8.73;4.60;;;18.20;99.90;;;;;;5015215;28;20506;-75
2023/09/13 01:16:39;;;;;;;14.33;5.60;;;18.20;99.90;;;;;;5008180;28;20422;-76
2023/09/13 01:19:37;;;;;;;8.63;5.73;;;18.20;99.90;;;;;;4988002;28;20218;-76
2023/09/13 01:22:03;;;;;;;9.20;6.03;;;18.20;99.90;;;;;;5013841;28;20417;-76
2023/09/13 01:24:56;;;;;;;8.40;5.40;;;18.10;99.90;;;;;;5010694;28;20426;-76
2023/09/13 01:27:33;;;;;;;7.77;4.37;;;18.00;99.90;;;;;;5008800;28;20245;-76
2023/09/13 01:30:00;;;;;;;15.63;4.37;;;18.00;99.90;;;;;;5002062;28;20437;-76
2023/09/13 01:32:26;;;;;;;8.70;3.90;;;18.00;99.90;;;;;;5010926;28;20414;-76
2023/09/13 01:34:51;;;;;;;20.50;4.57;;;18.00;99.90;;;;;;5008077;28;20438;-75
2023/09/13 01:37:18;;;;;;;7.77;4.40;;;17.90;99.90;;;;;;5016310;28;20183;-76
2023/09/13 01:39:44;;;;;;;6.50;3.80;;;17.90;99.90;;;;;;5006993;28;20223;-76
2023/09/13 01:42:11;;;;;;;17.10;5.47;;;17.90;99.90;;;;;;5014106;28;20938;-76
2023/09/13 01:44:40;;;;;;;6.73;4.27;;;17.90;99.90;;;;;;5012241;28;20195;-76
2023/09/13 01:47:07;;;;;;;6.97;4.23;;;17.90;99.90;;;;;;5014922;28;20996;-75
2023/09/13 01:49:35;;;;;;;9.70;4.63;;;17.90;99.90;;;;;;5014059;28;20441;-75
2023/09/13 01:52:03;;;;;;;6.93;3.90;;;17.90;99.90;;;;;;5016458;28;20423;-77
2023/09/13 01:54:32;;;;;;;10.57;4.03;;;17.80;99.90;;;;;;5010236;28;20962;-77
2023/09/13 01:56:58;;;;;;;7.73;4.57;;;17.80;99.90;;;;;;5012911;28;20429;-76
2023/09/13 01:59:23;;;;;;;6.47;4.40;;;17.90;99.90;;;;;;5009032;28;20458;-75
2023/09/13 02:01:49;;;;;;;18.10;4.30;;;17.80;99.90;;;;;;5005571;28;20190;-76
2023/09/13 02:04:14;;;;;;;7.43;4.40;;;17.80;99.90;;;;;;5014155;28;20183;-76
2023/09/13 02:06:40;;;;;;;7.90;4.47;;;17.70;99.90;;;;;;5008120;28;20232;-76
2023/09/13 02:09:06;;;;;;;6.20;3.80;;;17.60;99.90;;;;;;5011179;28;20203;-76
2023/09/13 02:11:32;;;;;;;9.37;4.37;;;17.60;99.90;;;;;;5009218;28;20222;-76
2023/09/13 02:13:57;;;;;;;9.40;4.80;;;17.50;99.90;;;;;;5014665;28;21030;-76
2023/09/13 02:16:24;;;;;;;10.40;4.57;;;17.50;99.90;;;;;;5006692;28;20209;-76
2023/09/13 02:18:50;;;;;;;10.27;5.23;;;17.60;99.90;;;;;;5014677;28;20206;-76
2023/09/13 02:21:16;;;;;;;10.57;4.50;;;17.50;99.90;;;;;;5006752;28;20422;-76
2023/09/13 02:23:42;;;;;;;9.27;4.73;;;17.50;99.90;;;;;;5012308;28;20422;-76
2023/09/13 02:26:26;;;;;;;11.23;4.87;;;17.40;99.90;;;;;;5009095;28;20199;-76
2023/09/13 02:28:52;;;;;;;8.83;4.40;;;17.40;99.90;;;;;;5012907;28;20450;-76
2023/09/13 02:31:26;;;;;;;9.07;5.07;;;17.50;99.90;;;;;;5013649;28;20950;-76
2023/09/13 02:33:53;;;;;;;8.23;4.83;;;17.50;99.90;;;;;;5012821;28;20459;-77
2023/09/13 02:36:19;;;;;;;8.10;4.70;;;17.50;99.90;;;;;;5015748;28;20417;-76
2023/09/13 02:38:44;;;;;;;8.50;4.57;;;17.50;99.90;;;;;;5015168;28;21046;-75
2023/09/13 02:41:10;;;;;;;14.87;4.50;;;17.50;99.90;;;;;;5012526;28;20198;-77
2023/09/13 02:43:36;;;;;;;8.07;3.83;;;17.50;99.90;;;;;;5018785;28;20318;-76
2023/09/13 02:46:02;;;;;;;6.93;3.80;;;17.50;99.90;;;;;;5014919;28;20746;-75
2023/09/13 02:48:28;;;;;;;8.27;3.40;;;17.40;99.90;;;;;;5015652;28;20450;-76
2023/09/13 02:50:54;;;;;;;8.80;4.33;;;17.50;99.90;;;;;;5013892;28;20175;-76
2023/09/13 02:53:19;;;;;;;7.80;3.77;;;17.50;99.90;;;;;;5019719;28;20460;-76
2023/09/13 02:55:45;;;;;;;22.63;5.13;;;17.60;99.90;;;;;;5012955;28;20186;-75
2023/09/13 02:58:11;;;;;;;9.60;3.90;;;17.60;99.90;;;;;;5021215;28;20202;-75
2023/09/13 03:00:42;;;;;;;7.00;4.60;;;17.60;99.90;;;;;;5013420;28;20175;-75
2023/09/13 03:03:08;;;;;;;9.53;5.40;;;17.60;99.90;;;;;;5020473;28;20823;-76
2023/09/13 03:05:33;;;;;;;11.07;5.20;;;17.70;99.90;;;;;;5014307;28;20465;-76
2023/09/13 03:07:59;;;;;;;9.07;4.40;;;17.70;99.90;;;;;;5018358;28;20663;-76
2023/09/13 03:10:27;;;;;;;12.53;5.73;;;17.70;99.90;;;;;;5014449;28;20190;-76
2023/09/13 03:12:52;;;;;;;8.00;4.50;;;17.70;99.90;;;;;;5020636;28;20259;-76
2023/09/13 03:15:18;;;;;;;7.43;4.10;;;17.70;99.90;;;;;;5008787;28;20509;-76
2023/09/13 03:17:43;;;;;;;8.00;4.80;;;17.70;99.90;;;;;;5022271;28;20725;-75
2023/09/13 03:20:09;;;;;;;7.97;4.50;;;17.70;99.90;;;;;;5014081;28;20722;-76
2023/09/13 03:22:35;;;;;;;7.43;4.20;;;17.70;99.90;;;;;;5046815;28;20202;-77
2023/09/13 03:25:01;;;;;;;9.67;4.87;;;17.60;99.90;;;;;;5041623;28;20489;-77
2023/09/13 03:27:26;;;;;;;10.13;4.70;;;17.60;99.90;;;;;;5044870;28;20213;-77
2023/09/13 03:29:52;;;;;;;11.90;4.20;;;17.60;99.90;;;;;;5035527;28;20199;-76
2023/09/13 03:32:17;;;;;;;9.90;4.63;;;17.60;99.90;;;;;;5025866;28;20210;-76
2023/09/13 03:34:43;;;;;;;10.33;4.90;;;17.60;99.90;;;;;;5011295;28;20191;-75
2023/09/13 03:37:08;;;;;;;9.27;5.10;;;17.60;99.90;;;;;;5006723;28;20266;-76
2023/09/13 03:39:34;;;;;;;9.57;4.90;;;17.60;99.90;;;;;;5012055;28;20719;-75
2023/09/13 03:42:00;;;;;;;6.87;4.17;;;17.60;99.90;;;;;;5012803;28;20191;-76
2023/09/13 03:44:26;;;;;;;11.63;5.10;;;17.60;99.90;;;;;;5011620;28;20188;-75
2023/09/13 03:46:51;;;;;;;9.83;3.63;;;17.60;99.90;;;;;;5017374;28;20214;-76
2023/09/13 03:49:17;;;;;;;7.33;4.00;;;17.60;99.90;;;;;;5014571;28;20342;-76
2023/09/13 03:51:42;;;;;;;9.43;5.67;;;17.60;99.90;;;;;;5019890;28;20599;-76
2023/09/13 03:54:08;;;;;;;11.73;4.67;;;17.60;99.90;;;;;;5010427;28;20222;-76
2023/09/13 03:56:34;;;;;;;8.17;4.43;;;17.60;99.90;;;;;;5021973;28;20209;-76
2023/09/13 03:58:59;;;;;;;10.10;5.40;;;17.60;99.90;;;;;;5011044;28;20203;-76
2023/09/13 04:01:25;;;;;;;5.97;3.80;;;17.60;99.90;;;;;;5015386;28;20547;-76
2023/09/13 04:03:51;;;;;;;6.80;3.93;;;17.60;99.90;;;;;;5011995;28;20191;-75
2023/09/13 04:06:16;;;;;;;6.43;4.10;;;17.60;99.90;;;;;;5005780;28;20458;-76
2023/09/13 04:08:42;;;;;;;7.37;4.70;;;17.60;99.90;;;;;;5009580;28;20649;-76
2023/09/13 04:11:08;;;;;;;10.37;4.80;;;17.60;99.90;;;;;;5016533;28;20183;-76
2023/09/13 04:13:34;;;;;;;16.97;4.80;;;17.60;99.90;;;;;;5010211;28;20194;-74
2023/09/13 04:16:05;;;;;;;8.73;4.57;;;17.60;99.90;;;;;;5014919;28;20418;-76
2023/09/13 04:18:31;;;;;;;10.27;4.70;;;17.60;99.90;;;;;;5015225;28;20210;-76
2023/09/13 04:20:56;;;;;;;9.00;4.30;;;17.60;99.90;;;;;;5009141;28;20418;-76
2023/09/13 04:23:22;;;;;;;9.23;5.07;;;17.60;99.90;;;;;;5017563;28;20203;-76
2023/09/13 04:25:48;;;;;;;11.83;4.40;;;17.50;99.90;;;;;;5005859;28;20203;-76
2023/09/13 04:28:13;;;;;;;7.27;3.73;;;17.50;99.90;;;;;;5011358;28;20688;-75
2023/09/13 04:30:39;;;;;;;8.03;4.33;;;17.40;99.90;;;;;;5006500;28;20257;-75
2023/09/13 04:33:06;;;;;;;12.27;5.10;;;17.40;99.90;;;;;;5013170;28;20179;-76
2023/09/13 04:35:32;;;;;;;7.80;4.50;;;17.40;99.90;;;;;;5010988;28;20656;-76
2023/09/13 04:37:58;;;;;;;8.80;4.13;;;17.40;99.90;;;;;;5010323;28;20903;-76
2023/09/13 04:40:24;;;;;;;9.93;5.13;;;17.40;99.90;;;;;;5008441;28;20457;-76
2023/09/13 04:43:16;;;;;;;7.03;5.00;;;17.40;99.90;;;;;;5017137;28;20217;-75
2023/09/13 04:45:41;;;;;;;8.27;5.20;;;17.40;99.90;;;;;;5011054;28;20214;-76
2023/09/13 04:48:07;;;;;;;10.83;4.90;;;17.50;99.90;;;;;;5016763;28;20414;-75
2023/09/13 04:50:33;;;;;;;7.23;4.73;;;17.50;99.90;;;;;;5012439;28;20183;-76
2023/09/13 04:52:58;;;;;;;12.07;5.47;;;17.50;99.90;;;;;;5016258;28;20175;-76
2023/09/13 04:55:26;;;;;;;10.67;5.80;;;17.50;99.90;;;;;;5010622;28;20190;-76
2023/09/13 04:57:52;;;;;;;8.50;4.60;;;17.60;99.90;;;;;;5021127;28;20183;-75
2023/09/13 05:00:18;;;;;;;10.60;5.70;;;17.60;99.90;;;;;;5012058;28;20426;-76
2023/09/13 05:02:44;;;;;;;10.13;5.10;;;17.60;99.90;;;;;;5013845;28;20716;-76
2023/09/13 05:05:09;;;;;;;8.43;4.63;;;17.60;99.90;;;;;;5006825;28;20696;-76
2023/09/13 05:07:35;;;;;;;9.53;5.10;;;17.60;99.90;;;;;;5017745;28;20214;-74
2023/09/13 05:10:00;;;;;;;8.40;5.27;;;17.60;99.90;;;;;;5004852;28;20309;-76
2023/09/13 05:12:26;;;;;;;9.53;5.67;;;17.60;99.90;;;;;;5016098;28;20580;-76
2023/09/13 05:14:51;;;;;;;7.97;4.83;;;17.60;99.90;;;;;;5006892;28;20190;-76
2023/09/13 05:17:17;;;;;;;7.67;5.03;;;17.60;99.90;;;;;;5008082;28;20649;-77
2023/09/13 05:19:43;;;;;;;7.57;4.40;;;17.60;99.90;;;;;;5005127;28;20235;-75
2023/09/13 05:22:08;;;;;;;10.83;5.40;;;17.70;99.90;;;;;;5014315;28;20175;-76
2023/09/13 05:24:34;;;;;;;10.03;4.50;;;17.70;99.90;;;;;;5002830;28;20187;-76
2023/09/13 05:27:00;;;;;;;10.47;5.90;;;17.70;99.90;;;;;;5009200;28;20672;-76
2023/09/13 05:29:25;;;;;;;10.37;5.63;;;17.80;99.90;;;;;;5006006;28;20207;-76
2023/09/13 05:31:51;;;;;;;8.60;5.53;;;17.80;99.90;;;;;;5014602;28;20556;-75
2023/09/13 05:34:16;;;;;;;20.53;6.10;;;17.80;99.90;;;;;;5007776;28;20175;-76
2023/09/13 05:36:42;;;;;;;21.23;6.00;;;17.80;99.90;;;;;;5015377;28;20189;-76
2023/09/13 05:39:08;;;;;;;11.50;4.93;;;17.90;99.90;;;;;;5009629;28;20297;-76
2023/09/13 05:41:34;;;;;;;9.80;4.77;;;17.90;99.90;;;;;;5007192;28;20179;-74
2023/09/13 05:44:00;;;;;;;9.40;4.47;;;17.90;99.90;;;;;;5011858;28;20517;-76
2023/09/13 05:46:25;;;;;;;9.50;5.40;;;17.90;99.90;;;;;;5013934;28;20750;-76
2023/09/13 05:48:51;;;;;;;7.97;5.03;;;17.90;99.90;;;;;;5013121;28;20222;-76
2023/09/13 05:51:19;;;;;;;12.40;5.60;;;17.90;99.90;;;;;;5009423;28;20194;-77
2023/09/13 05:53:44;;;;;;;10.87;5.67;;;17.90;99.90;;;;;;5008822;28;20660;-76
2023/09/13 05:56:11;;;;;;;9.03;4.67;;;17.90;99.90;;;;;;5010720;28;20432;-76
2023/09/13 05:58:37;;;;;;;10.53;4.73;;;17.90;99.90;;;;;;5012438;28;20206;-76
2023/09/13 06:01:03;;;;;;;9.23;4.90;;;17.90;99.90;;;;;;5011206;28;20424;-76
2023/09/13 06:03:30;;;;;;;10.77;4.80;;;17.90;99.90;;;;;;5019405;28;20833;-76
2023/09/13 06:05:56;;;;;;;8.23;4.90;;;18.00;99.90;;;;;;5016681;28;20257;-76
2023/09/13 06:08:22;;;;;;;6.73;4.90;;;18.00;99.90;;;;;;5016899;28;20949;-76
2023/09/13 06:10:47;;;;;;;11.07;4.63;;;18.00;99.90;;;;;;5015776;28;20413;-77
2023/09/13 06:13:15;;;;;;;10.23;5.00;;;18.00;99.90;;;;;;5018524;28;20178;-75
2023/09/13 06:15:40;;;;;;;9.50;4.70;;;18.00;99.90;;;;;;5019893;28;20190;-75
2023/09/13 06:18:06;;;;;;;11.00;5.60;;;18.00;99.90;;;;;;5019808;28;20579;-76
2023/09/13 06:20:32;;;;;;;16.63;5.30;;;18.00;99.90;;;;;;5007492;28;20688;-76
2023/09/13 06:22:58;;;;;;;7.37;4.40;;;18.10;99.90;;;;;;5021631;28;20202;-77
2023/09/13 06:25:24;;;;;;;6.83;4.00;;;18.10;99.90;;;;;;5010248;28;20293;-76
2023/09/13 06:27:49;;;;;;;7.20;3.63;;;18.20;99.90;;;;;;5014451;28;20926;-74
2023/09/13 06:30:15;;;;;;;6.97;3.83;;;18.20;99.90;;;;;;5007525;28;20259;-76
2023/09/13 06:32:41;;;;;;;9.60;5.53;;;18.30;99.90;;;;;;5012757;28;20194;-76
2023/09/13 06:35:11;;;;;;;8.10;4.27;;;18.40;99.90;;;;;;5013687;28;20190;-76
2023/09/13 06:37:37;;;;;;;7.43;4.10;;;18.60;99.90;;;;;;5013008;28;20413;-76
2023/09/13 06:40:03;;;;;;;6.63;4.03;;;18.60;99.90;;;;;;5014986;28;20472;-77
2023/09/13 06:42:29;;;;;;;8.33;4.87;;;18.80;99.90;;;;;;5015906;28;20266;-76
2023/09/13 06:44:55;;;;;;;12.20;4.70;;;19.00;99.90;;;;;;5013411;28;20608;-76
2023/09/13 06:47:20;;;;;;;10.10;5.20;;;19.00;99.90;;;;;;5017629;28;20270;-76
2023/09/13 06:49:46;;;;;;;9.07;4.80;;;19.00;99.90;;;;;;5010544;28;21041;-76
2023/09/13 06:52:12;;;;;;;10.83;3.93;;;19.00;99.90;;;;;;5014603;28;20179;-75
2023/09/13 06:54:37;;;;;;;7.03;4.10;;;19.00;99.90;;;;;;5010425;28;20801;-77
2023/09/13 06:57:05;;;;;;;7.93;4.10;;;19.00;99.90;;;;;;5012158;28;20182;-75
2023/09/13 06:59:32;;;;;;;12.13;5.43;;;19.00;99.90;;;;;;5015520;28;20206;-76
2023/09/13 07:01:58;;;;;;;6.70;4.47;;;19.00;99.90;;;;;;5013580;28;20799;-75
2023/09/13 07:04:23;;;;;;;6.07;3.97;;;18.90;99.90;;;;;;5017529;28;20429;-76
2023/09/13 07:06:49;;;;;;;8.43;4.33;;;18.90;99.90;;;;;;5013993;28;20825;-75
2023/09/13 07:09:15;;;;;;;13.67;4.70;;;18.90;99.90;;;;;;5014297;28;20278;-75
2023/09/13 07:11:40;;;;;;;9.47;4.77;;;18.80;99.90;;;;;;5013495;28;20265;-75
2023/09/13 07:14:06;;;;;;;9.43;4.50;;;18.80;99.90;;;;;;5017265;28;20179;-75
2023/09/13 07:16:31;;;;;;;12.20;4.87;;;18.90;99.90;;;;;;5009611;28;20278;-75
2023/09/13 07:18:57;;;;;;;5.20;3.80;;;18.90;99.90;;;;;;5016332;28;20671;-76
2023/09/13 07:21:22;;;;;;;8.20;4.33;;;18.90;99.90;;;;;;5010821;28;20233;-75
2023/09/13 07:23:48;;;;;;;11.70;5.13;;;18.90;99.90;;;;;;5019088;28;20215;-74
2023/09/13 07:26:14;;;;;;;12.03;5.57;;;18.90;99.90;;;;;;5007183;28;20290;-74
2023/09/13 07:28:39;;;;;;;8.60;4.03;;;19.00;99.90;;;;;;5012276;28;20199;-75
2023/09/13 07:31:07;;;;;;;8.60;5.00;;;18.90;99.90;;;;;;5013052;28;20214;-75
2023/09/13 07:33:32;;;;;;;8.00;4.27;;;19.00;99.90;;;;;;5014718;28;20179;-75
2023/09/13 07:35:58;;;;;;;10.50;3.73;;;19.00;99.90;;;;;;5013804;28;20420;-75
2023/09/13 07:38:24;;;;;;;7.83;4.40;;;19.00;99.90;;;;;;5016787;28;20199;-74
2023/09/13 07:40:49;;;;;;;10.23;5.03;;;19.00;99.90;;;;;;5010105;28;20706;-75
2023/09/13 07:43:16;;;;;;;7.97;4.53;;;19.00;99.90;;;;;;5021286;28;20174;-75
2023/09/13 07:45:41;;;;;;;6.50;3.80;;;19.00;99.90;;;;;;5014670;28;20198;-75
2023/09/13 07:48:07;;;;;;;9.57;4.40;;;19.00;99.90;;;;;;5024736;28;20465;-76
2023/09/13 07:50:40;;;;;;;6.87;4.23;;;19.20;99.90;;;;;;5039157;28;20218;-77
2023/09/13 07:53:06;;;;;;;14.10;5.23;;;19.10;99.90;;;;;;5047096;28;20175;-77
2023/09/13 07:55:32;;;;;;;7.87;5.17;;;19.10;99.90;;;;;;5044817;28;20414;-76
2023/09/13 07:57:58;;;;;;;8.90;5.30;;;19.10;99.90;;;;;;5028864;28;20407;-77
2023/09/13 08:00:24;;;;;;;8.60;5.17;;;19.20;99.90;;;;;;5000206;28;20283;-74
2023/09/13 08:02:49;;;;;;;8.17;4.00;;;19.30;99.90;;;;;;5006868;28;20257;-75
2023/09/13 08:05:16;;;;;;;7.20;4.23;;;19.40;99.90;;;;;;5001928;28;20974;-78
2023/09/13 08:07:44;;;;;;;8.40;4.30;;;19.50;99.90;;;;;;5015277;28;20377;-76
2023/09/13 08:10:09;;;;;;;7.67;3.47;;;19.40;99.90;;;;;;5019568;28;20433;-76
2023/09/13 08:12:35;;;;;;;10.13;3.73;;;19.40;99.90;;;;;;5020305;28;20413;-74
2023/09/13 08:15:01;;;;;;;7.50;4.10;;;19.50;99.90;;;;;;5007589;28;20670;-76
2023/09/13 08:17:26;;;;;;;8.67;4.10;;;19.50;99.90;;;;;;5017367;28;20187;-76
2023/09/13 08:19:52;;;;;;;7.13;3.90;;;19.40;99.90;;;;;;5005586;28;20212;-76
2023/09/13 08:22:18;;;;;;;11.57;4.43;;;19.30;99.90;;;;;;5012348;28;20236;-76
2023/09/13 08:24:43;;;;;;;8.35;5.10;;;19.40;99.90;;;;;;5008778;28;20267;-76
2023/09/13 08:27:09;;;;;;;6.37;4.20;;;19.30;99.90;;;;;;5012525;28;20182;-76
2023/09/13 08:29:34;;;;;;;6.73;3.67;;;19.30;99.90;;;;;;5005832;28;20198;-76
2023/09/13 08:32:00;;;;;;;8.70;4.03;;;19.30;99.90;;;;;;5015249;28;20180;-76
2023/09/13 08:34:26;;;;;;;10.10;3.13;;;19.20;99.90;;;;;;5008053;28;20175;-76
2023/09/13 08:36:56;;;;;;;6.37;3.43;;;19.20;99.90;;;;;;5016759;28;20320;-76
2023/09/13 08:39:22;;;;;;;4.10;2.50;;;19.30;99.90;;;;;;5009218;28;20568;-76
2023/09/13 08:41:52;;;;;;;7.00;2.87;;;19.30;99.90;;;;;;5015001;28;20534;-76
2023/09/13 08:44:22;;;;;;;4.70;2.50;;;19.30;99.90;;;;;;5011197;28;20432;-76
2023/09/13 08:46:56;;;;;;;4.73;2.80;;;19.30;99.90;;;;;;5015097;28;20462;-75
2023/09/13 08:49:22;;;;;;;5.00;3.07;;;19.40;99.90;;;;;;5005445;28;21064;-76
2023/09/13 08:51:50;;;;;;;4.83;2.70;;;19.40;99.90;;;;;;5013031;28;20423;-76
2023/09/13 08:54:16;;;;;;;5.10;3.23;;;19.40;99.90;;;;;;5008917;28;20512;-77
2023/09/13 08:56:43;;;;;;;5.40;3.00;;;19.50;99.90;;;;;;5018522;28;20508;-76
2023/09/13 08:59:09;;;;;;;8.60;4.43;;;19.50;99.90;;;;;;5013142;28;20445;-76
2023/09/13 09:01:39;;;;;;;6.40;4.47;;;19.60;99.90;;;;;;5014702;28;20428;-75
2023/09/13 09:04:04;;;;;;;9.40;5.40;;;19.60;99.90;;;;;;5023498;28;20433;-76
2023/09/13 09:06:31;;;;;;;6.63;4.60;;;19.60;99.90;;;;;;5011252;28;20470;-75
2023/09/13 09:08:58;;;;;;;12.50;4.93;;;19.60;99.90;;;;;;5013763;28;20199;-76
2023/09/13 09:11:27;;;;;;;9.87;5.30;;;19.50;99.90;;;;;;5015552;28;20414;-76
2023/09/13 09:14:00;;;;;;;7.33;4.57;;;19.40;99.90;;;;;;5011127;28;20967;-76
2023/09/13 09:16:26;;;;;;;7.03;3.87;;;19.30;99.90;;;;;;5012164;28;20430;-77
2023/09/13 09:18:54;;;;;;;11.50;5.83;;;19.00;99.90;;;;;;5015042;28;20457;-78
2023/09/13 09:21:20;;;;;;;7.53;4.73;;;18.60;99.90;;;;;;5012251;28;20410;-76
2023/09/13 09:23:46;;;;;;;7.87;4.90;;;18.40;99.90;;;;;;5013214;28;20940;-77
2023/09/13 09:26:11;;;;;;;7.33;4.23;;;18.20;99.90;;;;;;5010643;28;20210;-77
2023/09/13 09:28:37;;;;;;;18.30;5.17;;;18.10;99.90;;;;;;5012520;28;20199;-77
2023/09/13 09:31:03;;;;;;;11.27;4.53;;;18.10;99.90;;;;;;5011111;28;20293;-77
2023/09/13 09:33:31;;;;;;;8.27;4.63;;;18.10;99.90;;;;;;5012821;28;20648;-77
2023/09/13 09:35:59;;;;;;;9.00;5.13;;;18.10;99.90;;;;;;5007672;28;20517;-77
2023/09/13 09:38:30;;;;;;;7.07;4.23;;;18.10;99.90;;;;;;5011773;28;20450;-78
2023/09/13 09:40:58;;;;;;;10.13;4.77;;;18.20;99.90;;;;;;5011949;28;20480;-77
2023/09/13 09:43:24;;;;;;;5.30;3.80;;;18.30;99.90;;;;;;5013103;28;20429;-76
2023/09/13 09:45:49;;;;;;;9.47;4.90;;;18.20;99.90;;;;;;5010149;28;20516;-77
2023/09/13 09:48:15;;;;;;;15.20;5.30;;;18.30;99.90;;;;;;5015687;28;20857;-77
2023/09/13 09:50:46;;;;;;;8.60;5.50;;;18.40;99.90;;;;;;5011410;28;20217;-76
2023/09/13 09:53:17;;;;;;;10.83;4.57;;;18.40;99.90;;;;;;5010271;28;20191;-76
2023/09/13 09:55:43;;;;;;;4.33;3.43;;;18.50;99.90;;;;;;5003299;28;20442;-76
2023/09/13 09:58:09;;;;;;;5.40;3.90;;;18.50;99.90;;;;;;5019868;28;20422;-76
2023/09/13 10:00:49;;;;;;;5.80;3.10;;;18.60;99.90;;;;;;5005359;28;20862;-77
2023/09/13 10:03:18;;;;;;;7.70;4.13;;;18.60;99.90;;;;;;5008287;28;20472;-76
2023/09/13 10:06:10;;;;;;;6.07;4.13;;;18.80;99.90;;;;;;5008585;28;20561;-76
2023/09/13 10:08:46;;;;;;;4.33;2.80;;;18.90;99.90;;;;;;5006316;28;20518;-78
2023/09/13 10:11:17;;;;;;;4.10;2.60;;;19.00;99.90;;;;;;4998741;28;20437;-76
2023/09/13 10:13:46;;;;;;;4.90;2.90;;;19.10;99.90;;;;;;5024466;28;20427;-76
2023/09/13 10:16:16;;;;;;;5.17;2.93;;;19.20;99.90;;;;;;5003969;28;20820;-76
2023/09/13 10:18:51;;;;;;;3.90;1.97;;;19.00;99.90;;;;;;5010852;28;21025;-76
2023/09/13 10:21:24;;;;;;;4.47;2.57;;;18.90;99.90;;;;;;5010420;28;20421;-77
2023/09/13 10:23:56;;;;;;;3.60;2.53;;;19.00;99.90;;;;;;5008615;28;20432;-77
2023/09/13 10:26:23;;;;;;;7.20;3.83;;;18.80;99.90;;;;;;5006292;28;20528;-79
2023/09/13 10:28:51;;;;;;;3.63;2.67;;;18.70;99.90;;;;;;5009652;28;20481;-77
2023/09/13 10:31:20;;;;;;;6.30;2.77;;;18.80;99.90;;;;;;5017745;28;20919;-77
2023/09/13 10:34:00;;;;;;;7.20;3.00;;;18.80;99.90;;;;;;5009657;28;20426;-77
2023/09/13 10:36:34;;;;;;;4.47;2.80;;;18.80;99.90;;;;;;5012862;28;20422;-77
2023/09/13 10:39:16;;;;;;;3.53;2.23;;;18.70;99.90;;;;;;5006653;28;20450;-77
2023/09/13 10:41:52;;;;;;;6.03;2.80;;;18.60;99.90;;;;;;5007789;28;20484;-77
2023/09/13 10:44:20;;;;;;;4.83;2.67;;;18.60;99.90;;;;;;5007150;28;20425;-77
2023/09/13 10:46:46;;;;;;;5.37;3.00;;;18.60;99.90;;;;;;5013408;28;20464;-77
2023/09/13 10:49:12;;;;;;;8.30;3.13;;;18.70;99.90;;;;;;5009031;28;20495;-77
2023/09/13 10:51:41;;;;;;;9.40;3.23;;;18.80;99.90;;;;;;5023319;28;20425;-74
2023/09/13 10:54:08;;;;;;;5.90;3.80;;;19.00;99.90;;;;;;5012138;28;20652;-76
2023/09/13 10:56:35;;;;;;;6.17;3.37;;;19.10;99.90;;;;;;5019391;28;20429;-77
2023/09/13 10:59:01;;;;;;;7.97;2.87;;;19.30;99.90;;;;;;5014381;28;20449;-77
2023/09/13 11:01:27;;;;;;;4.47;2.80;;;19.40;99.90;;;;;;5014594;28;20788;-78
2023/09/13 11:03:54;;;;;;;6.20;2.93;;;19.50;99.90;;;;;;5013928;28;20935;-78
2023/09/13 11:06:22;;;;;;;5.50;2.60;;;19.60;99.90;;;;;;5013075;28;20797;-77
2023/09/13 11:08:48;;;;;;;14.80;3.80;;;19.50;99.90;;;;;;5015639;28;20446;-76
2023/09/13 11:11:20;;;;;;;5.33;2.93;;;19.60;99.90;;;;;;5008362;28;20434;-77
2023/09/13 11:13:49;;;;;;;4.67;2.70;;;19.60;99.90;;;;;;5016725;28;20261;-76
2023/09/13 11:16:16;;;;;;;6.10;3.57;;;19.80;99.90;;;;;;5013941;28;20938;-77
2023/09/13 11:18:52;;;;;;;4.60;3.20;;;19.80;99.90;;;;;;5015795;28;20454;-77
2023/09/13 11:21:26;;;;;;;6.33;2.80;;;19.90;99.90;;;;;;5012180;28;20437;-77
2023/09/13 11:23:53;;;;;;;4.90;2.40;;;20.00;99.90;;;;;;5011001;28;20430;-77
2023/09/13 11:26:42;;;;;;;7.90;3.03;;;20.10;99.90;;;;;;5007330;28;20530;-76
2023/09/13 11:29:25;;;;;;;6.20;2.83;;;20.30;99.90;;;;;;5012044;28;20446;-77
2023/09/13 11:31:57;;;;;;;5.10;3.10;;;20.30;99.90;;;;;;5017293;28;20922;-75
2023/09/13 11:34:23;;;;;;;6.90;2.20;;;20.30;99.90;;;;;;5012063;28;20448;-77
2023/09/13 11:37:03;;;;;;;5.07;2.70;;;20.20;99.90;;;;;;5016282;28;20425;-77
2023/09/13 11:39:30;;;;;;;4.60;2.67;;;20.20;99.90;;;;;;5008140;28;20532;-78
2023/09/13 11:41:56;;;;;;;3.40;2.23;;;20.40;99.90;;;;;;5018135;28;20774;-78
2023/09/13 11:44:26;;;;;;;17.33;3.60;;;20.40;99.90;;;;;;5015745;28;20942;-77
2023/09/13 11:46:54;;;;;;;4.13;2.30;;;20.50;99.90;;;;;;5019394;28;20548;-77
2023/09/13 11:49:24;;;;;;;6.10;2.37;;;20.70;99.90;;;;;;5009511;28;20831;-76
2023/09/13 11:51:52;;;;;;;3.53;2.23;;;20.70;99.90;;;;;;5012430;28;20457;-76
2023/09/13 11:54:19;;;;;;;4.87;2.07;;;20.80;99.90;;;;;;5012871;28;21044;-76
2023/09/13 11:56:45;;;;;;;3.97;2.20;;;20.90;99.90;;;;;;5012386;28;20425;-77
2023/09/13 11:59:14;;;;;;;3.80;2.33;;;20.90;99.90;;;;;;5014797;28;20453;-77
2023/09/13 12:01:45;;;;;;;3.80;2.10;;;21.10;99.90;;;;;;5012610;28;20878;-76
2023/09/13 12:04:11;;;;;;;6.47;3.13;;;21.20;99.90;;;;;;5017922;28;20532;-76
2023/09/13 12:06:45;;;;;;;4.40;2.20;;;21.00;99.90;;;;;;5017616;28;20548;-76
2023/09/13 12:09:12;;;;;;;5.50;2.57;;;21.10;99.90;;;;;;5015586;28;20453;-77
2023/09/13 12:11:41;;;;;;;4.57;2.20;;;21.20;99.90;;;;;;5009357;28;20424;-77
2023/09/13 12:14:09;;;;;;;5.07;2.90;;;21.30;99.90;;;;;;5016697;28;20484;-76
2023/09/13 12:16:38;;;;;;;5.10;2.90;;;21.40;99.90;;;;;;5011390;28;20414;-76
2023/09/13 12:19:05;;;;;;;5.10;2.77;;;21.60;99.90;;;;;;5018680;28;21029;-77
2023/09/13 12:21:31;;;;;;;4.50;2.50;;;21.70;99.90;;;;;;5025666;28;20442;-79
2023/09/13 12:23:57;;;;;;;4.23;2.80;;;21.90;99.90;;;;;;5036321;28;20445;-80
2023/09/13 12:26:26;;;;;;;7.07;2.70;;;22.20;99.90;;;;;;5039465;28;20492;-78
2023/09/13 12:28:52;;;;;;;3.80;2.00;;;22.40;99.90;;;;;;5037862;28;20202;-77
2023/09/13 12:31:19;;;;;;;4.47;2.53;;;22.80;99.90;;;;;;5032150;28;20434;-76
2023/09/13 12:33:49;;;;;;;7.00;2.40;;;23.00;99.90;;;;;;5004534;28;20426;-77
2023/09/13 12:36:16;;;;;;;7.37;2.37;;;23.00;99.90;;;;;;5012438;28;20468;-77
2023/09/13 12:38:42;;;;;;;2.93;1.87;;;23.30;99.90;;;;;;5012684;28;20453;-77
2023/09/13 12:41:19;;;;;;;2.93;1.90;;;23.30;99.90;;;;;;4999333;28;20413;-77
2023/09/13 12:43:49;;;;;;;4.70;2.00;;;23.30;99.90;;;;;;5011042;28;20179;-77
2023/09/13 12:46:20;;;;;;;4.20;1.93;;;23.00;99.90;;;;;;5012413;28;21037;-77